Time;durP1;ratioP1;P1;durP2;ratioP2;P2;SDS_P1;SDS_P2;PMS_P1;PMS_P2;Temp;Humidity;BMP_temperature;BMP_pressure;BME280_temperature;BME280_humidity;BME280_pressure;Samples;Min_cycle;Max_cycle;Signal;HPM_P1;HPM_P2
2021/07/05 02:14:05;;;;;;;2.07;1.20;;;15.80;99.90;;;;;;688428;23;20742;-94
2021/07/05 02:16:32;;;;;;;1.33;1.20;;;15.90;99.90;;;;;;4959138;28;20467;-94
2021/07/05 02:19:03;;;;;;;1.83;1.40;;;15.70;99.90;;;;;;4944581;28;20453;-95
2021/07/05 02:21:29;;;;;;;1.30;1.20;;;15.80;99.90;;;;;;4944493;28;20494;-95
2021/07/05 02:24:18;;;;;;;1.80;1.70;;;15.80;99.90;;;;;;4945110;28;21622;-96
2021/07/05 02:26:47;;;;;;;1.63;1.20;;;15.80;99.90;;;;;;4959994;28;20447;-94
2021/07/05 02:29:16;;;;;;;1.27;1.17;;;15.80;99.90;;;;;;4946546;28;20458;-95
2021/07/05 02:31:41;;;;;;;1.67;1.17;;;15.90;99.90;;;;;;4940516;28;20988;-94
2021/07/05 02:34:07;;;;;;;1.60;1.10;;;15.80;99.90;;;;;;4944998;28;20203;-96
2021/07/05 02:36:36;;;;;;;2.47;1.37;;;15.70;99.90;;;;;;4943266;28;20210;-96
2021/07/05 02:39:14;;;;;;;2.23;1.77;;;15.80;99.90;;;;;;4948780;28;20183;-96
2021/07/05 02:41:39;;;;;;;1.40;1.30;;;15.80;99.90;;;;;;4950211;28;21495;-96
2021/07/05 02:44:07;;;;;;;1.60;1.30;;;15.90;99.90;;;;;;4959599;28;20452;-96
2021/07/05 02:46:33;;;;;;;1.30;1.20;;;15.80;99.90;;;;;;4960188;28;20179;-95
2021/07/05 02:49:03;;;;;;;1.40;1.20;;;15.90;99.90;;;;;;4958869;28;20451;-96
2021/07/05 02:54:43;;;;;;;2.00;1.30;;;15.90;99.90;;;;;;4943624;28;20434;-95
2021/07/05 02:57:29;;;;;;;1.93;1.27;;;15.90;99.90;;;;;;4940080;29;20588;-95
2021/07/05 03:00:07;;;;;;;4.50;1.20;;;15.90;99.90;;;;;;4942263;28;20202;-95
2021/07/05 03:02:36;;;;;;;2.03;1.50;;;15.90;99.90;;;;;;4959404;28;20458;-95
2021/07/05 03:05:12;;;;;;;3.03;1.50;;;16.00;99.90;;;;;;4959899;28;20502;-96
2021/07/05 04:33:00;;;;;;;2.50;1.77;;;16.10;99.90;;;;;;4942518;28;20505;-88
2021/07/05 04:35:27;;;;;;;2.37;2.00;;;16.00;99.90;;;;;;4943314;28;20530;-91
2021/07/05 04:37:54;;;;;;;4.27;2.40;;;16.00;99.90;;;;;;4943147;28;20451;-91
2021/07/05 04:40:27;;;;;;;3.27;2.27;;;15.90;99.90;;;;;;4938588;29;20529;-87
2021/07/05 04:42:53;;;;;;;2.67;2.37;;;15.80;99.90;;;;;;4953527;28;20529;-90
2021/07/05 04:45:26;;;;;;;3.10;2.10;;;15.80;99.90;;;;;;4937203;28;20432;-91
2021/07/05 04:47:53;;;;;;;2.70;2.50;;;15.90;99.90;;;;;;4942908;28;20434;-94
2021/07/05 04:50:19;;;;;;;3.00;2.80;;;15.90;99.90;;;;;;4942446;28;20442;-91
2021/07/05 04:52:45;;;;;;;3.70;2.00;;;16.00;99.90;;;;;;4940605;28;20526;-92
2021/07/05 04:55:13;;;;;;;6.50;2.30;;;16.00;99.90;;;;;;4942376;28;20435;-93
2021/07/05 04:57:41;;;;;;;3.10;2.00;;;16.20;99.90;;;;;;4937877;28;20553;-93
2021/07/05 05:00:10;;;;;;;1.67;1.57;;;16.30;99.90;;;;;;4940155;29;20790;-91
2021/07/05 05:02:37;;;;;;;1.50;1.40;;;16.50;99.90;;;;;;4942095;28;20538;-92
2021/07/05 05:05:07;;;;;;;4.73;1.90;;;16.60;99.90;;;;;;4939388;29;20443;-92
2021/07/05 05:07:35;;;;;;;3.43;1.77;;;16.70;99.90;;;;;;4941972;28;20489;-92
2021/07/05 05:10:07;;;;;;;2.10;1.67;;;16.80;99.90;;;;;;4942446;28;20495;-91
2021/07/05 05:12:33;;;;;;;1.80;1.57;;;16.80;99.90;;;;;;4937228;28;20482;-91
2021/07/05 05:14:58;;;;;;;2.70;1.60;;;16.90;99.90;;;;;;4937846;28;20459;-91
2021/07/05 05:17:24;;;;;;;2.10;1.83;;;17.00;99.90;;;;;;4939121;29;20439;-92
2021/07/05 05:19:50;;;;;;;2.20;2.00;;;17.10;99.90;;;;;;4937713;28;20195;-92
2021/07/05 05:22:16;;;;;;;2.60;2.13;;;17.10;99.90;;;;;;4938559;28;20653;-92
2021/07/05 05:24:42;;;;;;;2.13;2.00;;;17.10;99.90;;;;;;4940547;28;20634;-91
2021/07/05 05:27:08;;;;;;;3.67;2.00;;;17.10;99.90;;;;;;4940679;28;21127;-92
2021/07/05 05:29:35;;;;;;;2.17;1.50;;;17.10;99.90;;;;;;4939065;28;20503;-91
2021/07/05 05:32:00;;;;;;;1.83;1.73;;;17.10;99.90;;;;;;4939398;29;20310;-91
2021/07/05 05:34:26;;;;;;;2.90;1.87;;;17.10;99.90;;;;;;4942244;28;20522;-91
2021/07/05 05:36:51;;;;;;;2.13;1.67;;;17.20;99.90;;;;;;4939723;28;20245;-91
2021/07/05 05:39:17;;;;;;;1.77;1.67;;;17.30;99.90;;;;;;4941223;28;20576;-91
2021/07/05 05:41:43;;;;;;;2.20;2.00;;;17.30;99.90;;;;;;4940952;29;20665;-91
2021/07/05 05:44:09;;;;;;;3.20;1.93;;;17.20;99.90;;;;;;4944302;28;20235;-90
2021/07/05 05:46:34;;;;;;;3.60;2.00;;;17.20;99.90;;;;;;4939740;28;20242;-88
2021/07/05 05:49:01;;;;;;;1.80;1.50;;;17.20;99.90;;;;;;4957746;28;20243;-89
2021/07/05 05:51:32;;;;;;;2.37;1.70;;;17.30;99.90;;;;;;4936078;28;20222;-85
2021/07/05 05:54:05;;;;;;;3.77;2.10;;;17.20;99.90;;;;;;4938614;28;20808;-87
2021/07/05 05:56:34;;;;;;;1.90;1.80;;;17.20;99.90;;;;;;4938253;28;20474;-85
2021/07/05 05:59:06;;;;;;;1.50;1.40;;;17.30;99.90;;;;;;4937631;28;20809;-84
2021/07/05 06:01:33;;;;;;;3.57;1.60;;;17.40;99.90;;;;;;4935890;28;20555;-83
2021/07/05 06:03:59;;;;;;;2.03;1.70;;;17.30;99.90;;;;;;4938140;28;20964;-84
2021/07/05 06:07:05;;;;;;;3.00;1.80;;;17.30;99.90;;;;;;4936205;28;21585;-91
2021/07/05 06:09:40;;;;;;;27.17;5.57;;;17.30;99.90;;;;;;4939485;28;20447;-91
2021/07/05 06:12:06;;;;;;;11.70;3.50;;;17.40;99.90;;;;;;4934314;28;20483;-91
2021/07/05 06:14:32;;;;;;;2.53;1.83;;;17.50;99.90;;;;;;4941333;28;20806;-91
2021/07/05 06:16:58;;;;;;;2.03;1.70;;;17.50;99.90;;;;;;4943233;28;20430;-92
2021/07/05 06:19:23;;;;;;;1.67;1.57;;;17.50;99.90;;;;;;4942423;28;21098;-93
2021/07/05 06:21:49;;;;;;;2.10;1.70;;;17.50;99.90;;;;;;4937264;28;20223;-92
2021/07/05 06:24:21;;;;;;;2.03;1.43;;;17.60;99.90;;;;;;4946293;29;20222;-94
2021/07/05 06:26:47;;;;;;;1.60;1.50;;;17.70;99.90;;;;;;4945298;28;20195;-93
2021/07/05 06:29:14;;;;;;;1.90;1.67;;;17.60;99.90;;;;;;4939028;29;20561;-93
2021/07/05 06:31:42;;;;;;;1.70;1.40;;;17.60;99.90;;;;;;4943115;28;20486;-95
2021/07/05 06:34:09;;;;;;;4.23;1.47;;;17.70;99.90;;;;;;4939972;29;20454;-94
2021/07/05 06:36:37;;;;;;;2.83;1.50;;;17.70;99.90;;;;;;4945789;28;21044;-93
2021/07/05 06:39:10;;;;;;;4.03;1.70;;;17.80;99.90;;;;;;4944769;28;20183;-94
2021/07/05 06:41:36;;;;;;;3.43;1.63;;;17.60;99.90;;;;;;4949504;28;20940;-94
2021/07/05 06:44:02;;;;;;;1.93;1.50;;;17.60;99.90;;;;;;4949841;28;20442;-93
2021/07/05 06:46:28;;;;;;;2.37;1.97;;;17.70;99.90;;;;;;4946579;28;20206;-94
2021/07/05 06:48:54;;;;;;;2.10;1.47;;;17.70;99.90;;;;;;4942962;29;21417;-93
2021/07/05 06:51:30;;;;;;;3.97;2.03;;;17.60;99.90;;;;;;4944143;29;20980;-93
2021/07/05 06:53:56;;;;;;;2.53;1.77;;;17.60;99.90;;;;;;4942362;28;20581;-93
2021/07/05 06:56:22;;;;;;;4.30;2.20;;;17.60;99.90;;;;;;4946467;28;20454;-93
2021/07/05 06:58:47;;;;;;;2.20;2.00;;;17.70;99.90;;;;;;4963479;28;20286;-94
2021/07/05 07:01:13;;;;;;;2.10;1.80;;;17.60;99.90;;;;;;4945607;28;20191;-92
2021/07/05 07:03:39;;;;;;;1.70;1.60;;;17.60;99.90;;;;;;4938525;28;20638;-91
2021/07/05 07:06:10;;;;;;;2.17;1.97;;;17.60;99.90;;;;;;4937483;28;20230;-93
2021/07/05 07:08:36;;;;;;;2.30;2.10;;;17.80;99.90;;;;;;4947296;28;20191;-92
2021/07/05 07:11:02;;;;;;;3.33;1.93;;;17.90;99.90;;;;;;4943397;28;20487;-93
2021/07/05 07:13:34;;;;;;;2.00;1.80;;;18.00;99.90;;;;;;4940439;29;20608;-94
2021/07/05 07:16:03;;;;;;;1.83;1.73;;;18.00;99.90;;;;;;4953816;28;20460;-92
2021/07/05 07:20:58;;;;;;;3.10;2.30;;;18.10;99.90;;;;;;4945509;28;20458;-92
2021/07/05 07:23:24;;;;;;;3.70;1.80;;;18.10;99.90;;;;;;4939437;28;20439;-94
2021/07/05 07:25:50;;;;;;;2.37;1.67;;;18.10;99.90;;;;;;4960725;28;20514;-93
2021/07/05 07:28:16;;;;;;;1.80;1.70;;;18.00;99.90;;;;;;4943673;28;20474;-94
2021/07/05 07:30:41;;;;;;;2.80;1.90;;;18.30;99.90;;;;;;4940248;28;20188;-93
2021/07/05 07:33:07;;;;;;;4.67;1.80;;;18.40;99.90;;;;;;4941291;28;20281;-93
2021/07/05 07:35:33;;;;;;;2.07;1.43;;;18.40;99.90;;;;;;4947427;28;20195;-94
2021/07/05 07:38:00;;;;;;;2.60;1.70;;;18.50;99.90;;;;;;4934264;28;20454;-93
2021/07/05 07:40:29;;;;;;;3.70;2.00;;;18.50;99.90;;;;;;4948134;28;20450;-94
2021/07/05 07:42:55;;;;;;;4.03;1.67;;;18.50;99.90;;;;;;4941379;28;20465;-93
2021/07/05 07:45:21;;;;;;;2.50;1.73;;;18.60;99.90;;;;;;4943460;28;20849;-93
2021/07/05 07:47:52;;;;;;;1.80;1.70;;;18.30;99.90;;;;;;4959282;28;20187;-92
2021/07/05 07:50:20;;;;;;;1.90;1.80;;;18.40;99.90;;;;;;4945967;28;20485;-93
2021/07/05 07:52:46;;;;;;;2.80;2.00;;;18.20;99.90;;;;;;4944775;28;20483;-93
2021/07/05 07:55:13;;;;;;;1.93;1.73;;;18.40;99.90;;;;;;4947203;28;20438;-93
2021/07/05 07:57:40;;;;;;;5.00;1.53;;;18.50;99.90;;;;;;4940780;29;20522;-94
2021/07/05 08:00:14;;;;;;;3.37;2.53;;;18.50;99.90;;;;;;4946224;28;20855;-93
2021/07/05 08:02:41;;;;;;;2.27;1.70;;;18.40;99.90;;;;;;4944373;28;20449;-93
2021/07/05 08:05:07;;;;;;;2.10;1.67;;;18.30;99.90;;;;;;4943617;29;20466;-93
2021/07/05 08:07:36;;;;;;;2.20;1.60;;;18.20;99.90;;;;;;4946609;28;20852;-93
2021/07/05 08:10:02;;;;;;;1.60;1.50;;;18.10;99.90;;;;;;4946930;28;20521;-93
2021/07/05 08:12:28;;;;;;;2.03;1.83;;;18.20;99.90;;;;;;4941820;29;20585;-93
2021/07/05 08:14:56;;;;;;;1.80;1.67;;;18.30;99.90;;;;;;4938472;29;20444;-94
2021/07/05 08:17:22;;;;;;;2.37;1.90;;;18.40;99.90;;;;;;4941743;29;20319;-93
2021/07/05 08:19:48;;;;;;;2.90;1.70;;;18.50;99.90;;;;;;4944122;28;20475;-94
2021/07/05 08:22:14;;;;;;;1.87;1.77;;;18.60;99.90;;;;;;4939629;28;20645;-93
2021/07/05 08:24:39;;;;;;;1.50;1.40;;;18.60;99.90;;;;;;4942082;28;20501;-94
2021/07/05 08:27:17;;;;;;;2.53;1.70;;;18.40;99.90;;;;;;4938110;28;20306;-94
2021/07/05 08:29:45;;;;;;;1.80;1.70;;;18.50;99.90;;;;;;4952114;28;20191;-93
2021/07/05 08:32:11;;;;;;;2.93;1.50;;;18.50;99.90;;;;;;4950587;28;20474;-93
2021/07/05 08:34:37;;;;;;;3.57;1.90;;;18.50;99.90;;;;;;4946986;28;20493;-93
2021/07/05 08:37:03;;;;;;;2.00;1.80;;;18.70;99.90;;;;;;4947485;28;20187;-95
2021/07/05 08:39:28;;;;;;;2.70;1.50;;;19.00;99.90;;;;;;4952201;28;20450;-93
2021/07/05 08:41:54;;;;;;;6.53;5.37;;;18.90;99.90;;;;;;4943387;28;20246;-94
2021/07/05 08:44:20;;;;;;;6.37;5.50;;;18.90;99.90;;;;;;4940672;28;20700;-95
2021/07/05 08:46:48;;;;;;;6.60;6.00;;;18.60;99.90;;;;;;4945515;28;20187;-94
2021/07/05 08:49:14;;;;;;;2.17;2.07;;;18.60;99.90;;;;;;4941616;28;20384;-94
2021/07/05 08:51:40;;;;;;;2.43;1.63;;;18.60;99.90;;;;;;4942043;28;21020;-93
2021/07/05 08:54:05;;;;;;;4.90;2.40;;;18.60;99.90;;;;;;4946276;28;20942;-94
2021/07/05 08:56:31;;;;;;;6.17;3.10;;;18.60;99.90;;;;;;4948577;28;20194;-95
2021/07/05 08:58:57;;;;;;;3.07;2.23;;;18.60;99.90;;;;;;4957822;28;20198;-94
2021/07/05 09:01:25;;;;;;;2.00;1.90;;;18.80;99.90;;;;;;4944724;28;20231;-94
2021/07/05 09:03:54;;;;;;;2.10;2.00;;;19.00;99.90;;;;;;4940730;28;20204;-93
2021/07/05 09:06:21;;;;;;;2.10;1.90;;;19.00;99.90;;;;;;4942944;28;20878;-93
2021/07/05 09:09:07;;;;;;;3.17;2.20;;;19.20;99.90;;;;;;4943225;28;20442;-94
2021/07/05 09:11:53;;;;;;;2.03;1.50;;;19.30;99.90;;;;;;4947215;28;20527;-95
2021/07/05 09:14:24;;;;;;;3.07;1.97;;;19.50;99.90;;;;;;4941173;28;20501;-95
2021/07/05 09:16:52;;;;;;;9.53;2.60;;;19.80;99.90;;;;;;4950524;28;20736;-96
2021/07/05 09:19:23;;;;;;;5.60;2.23;;;19.90;99.90;;;;;;4941466;28;20458;-94
2021/07/05 09:22:00;;;;;;;2.97;1.90;;;20.00;99.90;;;;;;4942357;28;20435;-95
2021/07/05 09:24:42;;;;;;;7.03;1.77;;;19.70;99.90;;;;;;4942400;29;20430;-94
2021/07/05 09:27:19;;;;;;;1.80;1.30;;;19.70;99.90;;;;;;4944848;28;20525;-94
2021/07/05 09:29:46;;;;;;;1.37;1.30;;;19.60;99.90;;;;;;4945317;28;20545;-94
2021/07/05 09:32:22;;;;;;;2.67;1.57;;;19.50;99.90;;;;;;4941915;28;20496;-95
2021/07/05 09:34:47;;;;;;;1.93;1.20;;;19.30;99.90;;;;;;4945445;28;20435;-95
2021/07/05 09:37:26;;;;;;;2.33;2.00;;;19.40;99.90;;;;;;4956201;28;20443;-95
2021/07/05 09:40:05;;;;;;;2.83;1.50;;;19.30;99.90;;;;;;4944541;29;20490;-94
2021/07/05 09:42:51;;;;;;;2.70;1.50;;;19.50;99.90;;;;;;4957806;28;20454;-94
2021/07/05 09:45:23;;;;;;;1.03;0.90;;;19.40;99.90;;;;;;4948287;28;20478;-93
2021/07/05 09:48:21;;;;;;;1.10;1.00;;;19.40;99.90;;;;;;4959066;28;20426;-95
2021/07/05 09:50:50;;;;;;;0.87;0.83;;;19.20;99.90;;;;;;4945988;28;20485;-93
2021/07/05 09:53:40;;;;;;;1.07;0.93;;;19.10;99.90;;;;;;4945360;28;20443;-94
2021/07/05 09:56:20;;;;;;;1.00;0.80;;;18.90;99.90;;;;;;4941656;28;20481;-94
2021/07/05 09:58:53;;;;;;;1.30;1.20;;;18.90;99.90;;;;;;4959752;28;20455;-94
2021/07/05 10:01:43;;;;;;;1.37;0.80;;;19.00;99.90;;;;;;4951878;28;20786;-95
2021/07/05 10:04:11;;;;;;;0.63;0.63;;;19.10;99.90;;;;;;4942984;29;20454;-94
2021/07/05 10:06:48;;;;;;;1.33;0.97;;;18.90;99.90;;;;;;4944876;28;20431;-94
2021/07/05 10:09:20;;;;;;;0.70;0.70;;;18.60;99.90;;;;;;4945327;28;20494;-92
2021/07/05 10:11:46;;;;;;;2.80;0.93;;;18.50;99.90;;;;;;4942955;28;20517;-94
2021/07/05 10:14:20;;;;;;;1.30;0.93;;;18.50;99.90;;;;;;4940538;28;20453;-94
2021/07/05 10:16:46;;;;;;;1.17;0.80;;;18.50;99.90;;;;;;4952515;28;20498;-95
2021/07/05 10:19:14;;;;;;;2.80;0.70;;;18.60;99.90;;;;;;4956747;28;20856;-95
2021/07/05 10:21:44;;;;;;;0.73;0.73;;;18.70;99.90;;;;;;4948588;28;20450;-91
2021/07/05 10:24:10;;;;;;;1.20;1.10;;;18.60;99.90;;;;;;4947654;28;21035;-93
2021/07/05 10:26:48;;;;;;;3.00;1.07;;;18.40;99.90;;;;;;4948518;29;20430;-96
2021/07/05 10:29:16;;;;;;;0.80;0.70;;;18.50;99.90;;;;;;4944174;28;20538;-96
2021/07/05 10:31:41;;;;;;;0.80;0.80;;;18.60;99.90;;;;;;4945233;28;20488;-94
2021/07/05 10:34:09;;;;;;;0.70;0.63;;;18.80;99.90;;;;;;4964704;28;20450;-95
2021/07/05 10:36:38;;;;;;;1.33;0.73;;;18.80;99.90;;;;;;4944891;28;20717;-95
2021/07/05 10:39:31;;;;;;;1.53;1.00;;;19.20;99.90;;;;;;4943403;28;20427;-95
2021/07/05 10:42:26;;;;;;;1.30;0.77;;;19.30;99.90;;;;;;4943757;28;20813;-93
2021/07/05 10:45:13;;;;;;;1.50;1.00;;;19.20;99.90;;;;;;4949864;28;20450;-95
2021/07/05 10:47:52;;;;;;;1.03;0.90;;;19.40;99.90;;;;;;4947760;29;20474;-96
2021/07/05 10:50:44;;;;;;;0.80;0.80;;;19.50;99.90;;;;;;4962133;28;20479;-96
2021/07/05 10:53:19;;;;;;;0.80;0.80;;;19.50;99.90;;;;;;4963236;28;20521;-94
2021/07/05 10:55:51;;;;;;;0.80;0.77;;;19.70;99.90;;;;;;4947582;29;20524;-96
2021/07/05 10:58:27;;;;;;;1.00;0.90;;;19.50;99.90;;;;;;4947086;28;20498;-96
2021/07/05 11:01:01;;;;;;;1.13;0.80;;;19.50;99.90;;;;;;4947121;29;20429;-96
2021/07/05 11:03:36;;;;;;;3.50;0.97;;;19.40;99.90;;;;;;4943743;28;20941;-96
2021/07/05 11:06:02;;;;;;;0.60;0.60;;;19.50;99.90;;;;;;4964763;28;20453;-93
2021/07/05 11:08:38;;;;;;;1.10;0.90;;;20.00;99.90;;;;;;4942863;28;20964;-95
2021/07/05 11:11:16;;;;;;;0.90;0.90;;;20.10;99.90;;;;;;4941450;29;20599;-94
2021/07/05 11:13:42;;;;;;;0.60;0.60;;;20.10;99.90;;;;;;4947972;28;20438;-93
2021/07/05 11:16:09;;;;;;;1.20;1.20;;;20.20;99.90;;;;;;4946349;28;20495;-93
2021/07/05 11:18:40;;;;;;;0.90;0.90;;;20.30;99.90;;;;;;4944906;28;20443;-95
2021/07/05 11:21:29;;;;;;;0.80;0.80;;;20.10;99.90;;;;;;4961245;28;20447;-94
2021/07/05 11:23:58;;;;;;;1.10;0.90;;;19.90;99.90;;;;;;4937577;29;20475;-95
2021/07/05 11:26:33;;;;;;;1.70;0.97;;;19.80;99.90;;;;;;4962721;28;20459;-95
2021/07/05 11:29:23;;;;;;;1.20;0.90;;;20.00;99.90;;;;;;4944467;28;20442;-96
2021/07/05 11:31:57;;;;;;;0.70;0.50;;;20.00;99.90;;;;;;4948952;28;20898;-93
2021/07/05 11:34:45;;;;;;;0.93;0.80;;;19.80;99.90;;;;;;4944432;28;20493;-96
2021/07/05 11:37:11;;;;;;;2.63;1.10;;;19.50;99.90;;;;;;4940718;29;20440;-96
2021/07/05 11:39:42;;;;;;;2.10;0.90;;;19.30;99.90;;;;;;4962749;28;20448;-95
2021/07/05 11:42:09;;;;;;;0.90;0.90;;;19.30;99.90;;;;;;4945057;28;20546;-96
2021/07/05 11:44:50;;;;;;;1.10;1.10;;;19.10;99.90;;;;;;4946785;28;20449;-96
2021/07/05 11:47:47;;;;;;;0.90;0.90;;;18.80;99.90;;;;;;4948227;28;20439;-96
2021/07/05 11:50:22;;;;;;;0.93;0.93;;;18.60;99.90;;;;;;4957129;28;20442;-96
2021/07/05 11:52:54;;;;;;;1.67;1.10;;;18.80;99.90;;;;;;4960617;28;21592;-95
2021/07/05 11:55:22;;;;;;;1.73;1.00;;;19.20;99.90;;;;;;4941944;28;20445;-96
2021/07/05 11:58:06;;;;;;;1.50;0.90;;;19.60;99.90;;;;;;4947160;28;20453;-96
2021/07/05 12:00:36;;;;;;;1.33;0.90;;;19.80;99.90;;;;;;4950695;28;20446;-95
2021/07/05 12:03:24;;;;;;;2.60;1.20;;;20.20;99.90;;;;;;4946231;29;20465;-95
2021/07/05 12:06:00;;;;;;;1.07;0.90;;;21.20;99.90;;;;;;4945153;28;20442;-96
2021/07/05 12:08:26;;;;;;;1.10;0.97;;;21.90;99.90;;;;;;4947795;28;20457;-96
2021/07/05 12:10:56;;;;;;;1.20;1.10;;;22.20;99.90;;;;;;4943564;29;20439;-96
2021/07/05 12:13:42;;;;;;;1.43;1.10;;;22.20;99.90;;;;;;4948844;28;20202;-96
2021/07/05 12:16:08;;;;;;;1.10;1.00;;;21.90;99.90;;;;;;4946881;28;20457;-96
2021/07/05 12:18:33;;;;;;;2.03;0.90;;;21.80;99.90;;;;;;4946042;28;20526;-96
2021/07/05 12:21:02;;;;;;;1.23;1.00;;;21.40;99.90;;;;;;4944682;29;20233;-96
2021/07/05 12:23:38;;;;;;;1.50;1.10;;;21.10;99.90;;;;;;4943074;28;20183;-96
2021/07/05 12:26:38;;;;;;;1.30;1.20;;;21.20;99.90;;;;;;4963810;28;20547;-96
2021/07/05 12:29:16;;;;;;;1.10;1.10;;;21.10;99.90;;;;;;4944506;29;20773;-95
2021/07/05 12:32:08;;;;;;;0.97;0.97;;;21.20;99.90;;;;;;4948479;28;20528;-96
2021/07/05 12:34:54;;;;;;;1.53;1.40;;;20.90;99.90;;;;;;4955054;28;20449;-96
2021/07/05 12:37:50;;;;;;;1.97;1.47;;;20.90;99.90;;;;;;4967691;28;20442;-96
2021/07/05 12:40:28;;;;;;;1.33;1.23;;;21.00;99.90;;;;;;4967094;28;20517;-96
2021/07/05 12:42:56;;;;;;;1.83;1.70;;;21.00;99.90;;;;;;4947635;28;20476;-95
2021/07/05 12:45:27;;;;;;;2.30;1.20;;;21.10;99.90;;;;;;4947885;28;20442;-96
2021/07/05 12:48:19;;;;;;;1.80;1.27;;;20.80;99.90;;;;;;4955552;28;20463;-94
2021/07/05 12:50:53;;;;;;;1.90;1.80;;;20.40;99.90;;;;;;4935051;28;20465;-95
2021/07/05 12:53:21;;;;;;;2.00;1.50;;;20.70;99.90;;;;;;4961692;28;20521;-95
2021/07/05 12:56:25;;;;;;;1.60;1.50;;;21.00;99.90;;;;;;4957281;28;20842;-95
2021/07/05 12:58:56;;;;;;;1.50;1.40;;;20.70;99.90;;;;;;4944001;28;20538;-96
2021/07/05 13:01:25;;;;;;;1.40;1.30;;;20.40;99.90;;;;;;4939833;29;20790;-96
2021/07/05 13:04:02;;;;;;;1.67;1.40;;;20.10;99.90;;;;;;4958020;28;20451;-94
2021/07/05 13:06:36;;;;;;;1.40;1.40;;;20.50;99.90;;;;;;4945349;28;20469;-95
2021/07/05 13:09:10;;;;;;;2.03;1.63;;;21.10;99.90;;;;;;4958534;28;20774;-94
2021/07/05 13:11:46;;;;;;;1.30;1.20;;;22.40;99.90;;;;;;4942807;29;20482;-95
2021/07/05 13:14:22;;;;;;;1.60;1.50;;;22.80;99.90;;;;;;4940554;28;20958;-95
2021/07/05 13:16:48;;;;;;;2.80;1.40;;;23.10;99.90;;;;;;4940098;29;20867;-95
2021/07/05 13:19:17;;;;;;;1.70;1.60;;;22.90;99.90;;;;;;4943921;28;20559;-95
2021/07/05 13:21:46;;;;;;;1.60;1.50;;;23.20;99.90;;;;;;4944595;29;20445;-94
2021/07/05 13:24:21;;;;;;;1.50;1.40;;;23.90;99.90;;;;;;4948849;28;20493;-95
2021/07/05 13:26:49;;;;;;;1.60;1.50;;;23.20;99.90;;;;;;4946564;28;20490;-96
2021/07/05 13:29:19;;;;;;;1.53;1.40;;;22.70;99.90;;;;;;4942440;28;20441;-95
2021/07/05 13:31:49;;;;;;;1.70;1.60;;;22.20;99.90;;;;;;4955663;28;20860;-95
2021/07/05 13:34:33;;;;;;;2.67;1.40;;;21.60;99.90;;;;;;4943319;29;20471;-96
2021/07/05 13:37:00;;;;;;;2.57;1.70;;;21.50;99.90;;;;;;4960854;28;20504;-96
2021/07/05 13:39:36;;;;;;;1.57;1.47;;;21.60;99.90;;;;;;4945352;28;20447;-96
2021/07/05 13:42:18;;;;;;;2.10;1.53;;;21.80;99.90;;;;;;4946124;28;20446;-95
2021/07/05 13:44:48;;;;;;;2.20;1.40;;;21.60;99.90;;;;;;4945271;29;20450;-96
2021/07/05 13:47:43;;;;;;;1.60;1.50;;;21.40;99.90;;;;;;4944008;28;20462;-96
2021/07/05 13:50:11;;;;;;;1.27;1.17;;;21.50;99.90;;;;;;4947105;28;20865;-95
2021/07/05 13:52:55;;;;;;;1.60;1.50;;;21.50;99.90;;;;;;4954432;28;20490;-93
2021/07/05 13:55:25;;;;;;;2.17;1.80;;;21.30;99.90;;;;;;4952868;28;20805;-91
2021/07/05 13:57:52;;;;;;;1.67;1.57;;;21.10;99.90;;;;;;4951998;28;20491;-90
2021/07/05 14:00:18;;;;;;;1.17;1.17;;;20.90;99.90;;;;;;4937868;28;20553;-93
2021/07/05 14:02:46;;;;;;;1.30;0.93;;;20.50;99.90;;;;;;4938048;28;20456;-91
2021/07/05 14:05:22;;;;;;;1.10;1.00;;;20.10;99.90;;;;;;4939390;28;20504;-93
2021/07/05 14:07:48;;;;;;;0.90;0.90;;;19.70;99.90;;;;;;4938361;28;20446;-90
2021/07/05 14:10:34;;;;;;;1.37;1.20;;;19.50;99.90;;;;;;4939479;28;20454;-91
2021/07/05 14:13:01;;;;;;;2.00;1.33;;;19.00;99.90;;;;;;4939908;28;20596;-92
2021/07/05 14:15:27;;;;;;;1.67;1.53;;;18.70;99.90;;;;;;4942505;28;20664;-93
2021/07/05 14:18:01;;;;;;;1.10;0.97;;;18.70;99.90;;;;;;4936530;28;20479;-91
2021/07/05 14:20:27;;;;;;;1.30;1.20;;;18.70;99.90;;;;;;4935693;28;20453;-91
2021/07/05 14:22:53;;;;;;;1.00;1.00;;;19.00;99.90;;;;;;4929360;28;20533;-91
2021/07/05 14:25:19;;;;;;;1.10;1.00;;;19.20;99.90;;;;;;4934609;28;20508;-90
2021/07/05 14:27:46;;;;;;;0.97;0.97;;;19.60;99.90;;;;;;4932307;28;20483;-91
2021/07/05 14:30:13;;;;;;;1.00;1.00;;;20.00;99.90;;;;;;4939326;28;20490;-91
2021/07/05 14:32:42;;;;;;;0.70;0.70;;;21.00;99.90;;;;;;4946176;28;20486;-91
2021/07/05 14:35:08;;;;;;;0.80;0.80;;;22.90;99.90;;;;;;4939111;28;21143;-92
2021/07/05 14:37:34;;;;;;;2.50;0.70;;;26.40;99.90;;;;;;4934520;28;20462;-91
2021/07/05 14:40:00;;;;;;;0.70;0.70;;;28.10;96.90;;;;;;4953203;28;20961;-93
2021/07/05 14:42:28;;;;;;;1.23;0.73;;;26.70;97.90;;;;;;4933737;28;20211;-94
2021/07/05 14:44:55;;;;;;;0.87;0.87;;;25.90;98.50;;;;;;4938124;28;20585;-93
2021/07/05 14:47:21;;;;;;;1.50;0.80;;;27.50;96.90;;;;;;4935615;28;20533;-90
2021/07/05 14:49:47;;;;;;;0.70;0.70;;;28.70;94.00;;;;;;4933854;28;20454;-91
2021/07/05 14:52:12;;;;;;;0.83;0.83;;;29.30;91.50;;;;;;4937960;28;20219;-91
2021/07/05 14:54:38;;;;;;;0.60;0.60;;;26.60;93.70;;;;;;4936343;28;20203;-92
2021/07/05 14:57:15;;;;;;;0.80;0.80;;;24.60;96.50;;;;;;4938133;28;20195;-90
2021/07/05 14:59:43;;;;;;;2.13;1.17;;;23.50;98.40;;;;;;4936370;28;20453;-90
2021/07/05 15:02:09;;;;;;;1.73;0.53;;;22.90;99.90;;;;;;4937911;28;20454;-92
2021/07/05 15:04:34;;;;;;;0.60;0.60;;;22.70;99.70;;;;;;4936196;28;20443;-92
2021/07/05 15:07:01;;;;;;;0.70;0.70;;;22.70;99.80;;;;;;4939100;28;20204;-92
2021/07/05 15:09:27;;;;;;;1.73;0.67;;;23.10;99.80;;;;;;4938501;28;20195;-94
2021/07/05 15:11:53;;;;;;;0.80;0.80;;;23.50;98.80;;;;;;4936452;28;20482;-93
2021/07/05 15:14:18;;;;;;;0.97;0.97;;;25.10;96.40;;;;;;4935007;28;20196;-92
2021/07/05 15:16:44;;;;;;;0.83;0.60;;;25.70;96.20;;;;;;4930783;28;20243;-93
2021/07/05 15:19:11;;;;;;;0.60;0.53;;;26.90;94.50;;;;;;4937311;28;20203;-92
2021/07/05 15:21:37;;;;;;;1.30;0.90;;;28.50;91.30;;;;;;4935670;28;20277;-90
2021/07/05 15:24:03;;;;;;;1.87;0.70;;;27.60;91.30;;;;;;4935897;28;20462;-92
2021/07/05 15:26:29;;;;;;;0.80;0.80;;;25.70;93.20;;;;;;4949375;28;20210;-91
2021/07/05 15:28:56;;;;;;;0.80;0.80;;;26.00;94.60;;;;;;4936167;28;20450;-90
2021/07/05 15:31:21;;;;;;;0.70;0.70;;;28.20;91.90;;;;;;4933838;28;20222;-91
2021/07/05 15:33:51;;;;;;;0.80;0.80;;;28.10;91.80;;;;;;4935282;28;20477;-89
2021/07/05 15:36:18;;;;;;;3.50;0.90;;;28.10;90.70;;;;;;4934596;28;20618;-92
2021/07/05 15:38:52;;;;;;;1.40;0.97;;;26.90;91.50;;;;;;4936936;28;20451;-92
2021/07/05 15:41:20;;;;;;;0.73;0.70;;;26.90;92.20;;;;;;4937878;28;21031;-92
2021/07/05 15:43:46;;;;;;;2.77;1.23;;;28.90;89.40;;;;;;4936361;28;20439;-92
2021/07/05 15:46:14;;;;;;;1.17;0.90;;;27.40;90.10;;;;;;4931871;28;20460;-91
2021/07/05 15:48:40;;;;;;;1.23;1.00;;;26.40;92.60;;;;;;4954680;28;20849;-91
2021/07/05 15:51:07;;;;;;;0.90;0.90;;;28.00;91.50;;;;;;4933374;28;20475;-91
2021/07/05 15:53:34;;;;;;;1.30;1.20;;;27.30;91.20;;;;;;4921891;28;20474;-92
2021/07/05 15:56:01;;;;;;;1.27;0.90;;;27.40;90.60;;;;;;4921217;29;20873;-91
2021/07/05 15:58:27;;;;;;;1.13;0.83;;;28.90;88.50;;;;;;4941474;28;20450;-89
2021/07/05 16:01:00;;;;;;;1.10;1.00;;;;;;;;;;4951999;28;20453;-88
2021/07/05 16:03:27;;;;;;;0.70;0.70;;;;;;;;;;4952834;28;20455;-87
2021/07/05 16:05:54;;;;;;;1.03;0.80;;;;;;;;;;4941025;28;20570;-88
2021/07/05 16:08:20;;;;;;;1.30;1.20;;;;;;;;;;4951375;28;20522;-89
2021/07/05 16:10:49;;;;;;;4.20;1.07;;;;;;;;;;4940904;29;20427;-89
2021/07/05 16:13:20;;;;;;;1.07;0.80;;;;;;;;;;4952903;28;20487;-88
2021/07/05 16:15:48;;;;;;;1.33;0.70;;;;;;;;;;4940410;28;20440;-89
2021/07/05 16:18:15;;;;;;;0.83;0.83;;;;;;;;;;4935392;28;20806;-90
2021/07/05 16:20:42;;;;;;;2.40;0.60;;;;;;;;;;4957759;28;20463;-89
2021/07/05 16:23:08;;;;;;;0.80;0.80;;;;;;;;;;4939661;28;20478;-89
2021/07/05 16:25:34;;;;;;;1.17;0.90;;;;;;;;;;4949204;28;20443;-88
2021/07/05 16:28:04;;;;;;;0.80;0.80;;;;;;;;;;4952721;28;20445;-91
2021/07/05 16:30:32;;;;;;;1.37;0.80;;;;;;;;;;4938307;29;20449;-90
2021/07/05 16:32:58;;;;;;;1.53;0.70;;;;;;;;;;4954742;28;21028;-89
2021/07/05 16:35:24;;;;;;;1.20;0.80;;;;;;;;;;4954767;28;20439;-90
2021/07/05 16:37:50;;;;;;;1.47;0.60;;;;;;;;;;4954682;28;20462;-91
2021/07/05 16:40:16;;;;;;;1.03;0.90;;;;;;;;;;4954819;28;20529;-92
2021/07/05 16:42:42;;;;;;;0.90;0.90;;;;;;;;;;4948327;28;20883;-92
2021/07/05 16:45:08;;;;;;;1.57;0.87;;;;;;;;;;4952991;28;21291;-93
2021/07/05 16:47:38;;;;;;;0.90;0.90;;;;;;;;;;4950980;28;21545;-90
2021/07/05 16:50:05;;;;;;;0.93;0.93;;;;;;;;;;4952731;28;20937;-91
2021/07/05 16:52:32;;;;;;;0.90;0.90;;;;;;;;;;4951329;28;20483;-92
2021/07/05 16:54:58;;;;;;;2.17;1.50;;;;;;;;;;4953323;28;20437;-92
2021/07/05 16:57:25;;;;;;;1.00;0.80;;;;;;;;;;4951075;28;20944;-93